Time;durP1;ratioP1;P1;durP2;ratioP2;P2;SDS_P1;SDS_P2;PMS_P1;PMS_P2;Temp;Humidity;BMP_temperature;BMP_pressure;BME280_temperature;BME280_humidity;BME280_pressure;Samples;Min_cycle;Max_cycle;Signal;HPM_P1;HPM_P2
2021/12/10 00:02:12;;;;;;;12.97;8.13;;;3.20;88.70;;;3.61;64.15;96271.72;5107950;28;20564;-38
2021/12/10 00:04:44;;;;;;;9.00;4.77;;;3.10;88.60;;;3.57;64.56;96265.13;5108626;28;20058;-39
2021/12/10 00:07:22;;;;;;;8.80;5.80;;;3.10;88.50;;;3.55;64.25;96264.44;5108176;28;20350;-38
2021/12/10 00:09:59;;;;;;;9.70;4.70;;;3.00;88.40;;;3.55;64.78;96260.00;5107412;28;20063;-38
2021/12/10 00:12:37;;;;;;;4.63;3.10;;;3.10;89.00;;;3.56;64.59;96258.19;5107728;28;20040;-38
2021/12/10 00:15:07;;;;;;;5.67;2.63;;;3.10;89.00;;;3.55;64.64;96248.66;5108355;28;20046;-38
2021/12/10 00:17:35;;;;;;;6.63;3.03;;;3.10;88.80;;;3.55;64.02;96240.75;5106292;28;20073;-38
2021/12/10 00:20:08;;;;;;;4.03;2.10;;;3.10;88.40;;;3.54;64.67;96237.28;5108157;28;20342;-38
2021/12/10 00:22:53;;;;;;;5.60;2.03;;;3.10;88.30;;;3.53;64.48;96234.81;5106509;28;20050;-38
2021/12/10 00:25:38;;;;;;;13.30;6.63;;;3.10;88.20;;;3.50;63.99;96222.78;5108030;28;20044;-38
2021/12/10 00:28:23;;;;;;;9.53;4.07;;;3.00;88.30;;;3.48;64.36;96226.53;5106651;28;20044;-38
2021/12/10 00:31:20;;;;;;;6.13;3.77;;;3.00;88.00;;;3.45;64.35;96213.69;5090413;28;20059;-38
2021/12/10 00:34:08;;;;;;;8.07;2.50;;;3.00;88.30;;;3.40;64.47;96214.16;5108186;28;20052;-38
2021/12/10 00:36:38;;;;;;;6.50;1.87;;;2.90;88.50;;;3.38;64.37;96207.38;5106559;28;20054;-38
2021/12/10 00:39:16;;;;;;;4.70;1.80;;;2.90;88.20;;;3.32;64.59;96204.38;5108210;28;20051;-38
2021/12/10 00:41:44;;;;;;;4.60;2.00;;;2.90;88.50;;;3.30;64.56;96195.00;5107379;28;20056;-38
2021/12/10 00:44:12;;;;;;;6.97;2.40;;;2.80;88.40;;;3.25;63.85;96194.63;5107949;28;20062;-38
2021/12/10 00:46:40;;;;;;;5.70;3.00;;;2.80;88.20;;;3.23;64.56;96176.34;5107296;28;20062;-38
2021/12/10 00:49:09;;;;;;;4.60;1.73;;;2.70;88.90;;;3.21;63.87;96175.66;5107055;28;20089;-39
2021/12/10 00:51:39;;;;;;;4.00;1.90;;;2.70;88.60;;;3.16;64.00;96172.69;5106812;28;20051;-38
2021/12/10 00:54:10;;;;;;;2.57;1.57;;;2.70;88.50;;;3.13;63.99;96175.59;5107461;28;20113;-38
2021/12/10 00:56:41;;;;;;;4.60;1.50;;;2.60;88.60;;;3.10;64.16;96168.00;5107693;28;20054;-38
2021/12/10 00:59:11;;;;;;;4.27;1.73;;;2.60;88.70;;;3.09;64.08;96164.56;5108033;28;20035;-38
2021/12/10 01:01:41;;;;;;;4.90;1.73;;;2.60;88.80;;;3.07;64.36;96153.38;5090174;28;20231;-38
2021/12/10 01:04:26;;;;;;;4.77;1.40;;;2.60;89.30;;;3.06;64.58;96145.63;5107313;28;20408;-38
2021/12/10 01:06:59;;;;;;;3.97;1.73;;;2.60;88.80;;;3.05;64.67;96136.09;5107792;28;20054;-38
2021/12/10 01:09:35;;;;;;;4.97;1.60;;;2.60;88.60;;;3.05;64.18;96147.44;5106387;28;20053;-38
2021/12/10 01:12:19;;;;;;;3.33;1.30;;;2.60;89.10;;;3.02;64.52;96131.94;5107422;28;20048;-38
2021/12/10 01:16:06;;;;;;;3.33;1.58;;;2.60;88.90;;;3.03;64.24;96123.09;5107114;28;20069;-38
2021/12/10 01:24:15;;;;;;;3.23;1.50;;;2.50;88.60;;;2.93;64.37;96115.28;5107583;28;20052;-38
2021/12/10 01:29:27;;;;;;;4.13;1.57;;;2.40;88.70;;;2.91;64.45;96119.88;5106461;28;20337;-38
2021/12/10 01:31:56;;;;;;;4.23;1.77;;;2.40;88.60;;;2.91;64.77;96109.34;5106867;28;20058;-38
2021/12/10 01:34:25;;;;;;;3.03;1.23;;;2.50;88.30;;;2.88;64.55;96096.50;5106822;28;20245;-38
2021/12/10 01:36:54;;;;;;;4.57;1.50;;;2.40;88.10;;;2.86;64.42;96092.38;5105719;28;20044;-38
2021/12/10 01:39:28;;;;;;;3.20;1.60;;;2.40;88.10;;;2.82;64.57;96086.59;5108464;28;20056;-38
2021/12/10 01:42:12;;;;;;;3.63;1.93;;;2.30;88.10;;;2.79;64.42;96089.53;5087789;28;20047;-38
2021/12/10 01:44:46;;;;;;;5.80;1.40;;;2.30;88.20;;;2.74;64.52;96074.22;5106918;28;20054;-38
2021/12/10 01:47:18;;;;;;;3.63;1.23;;;2.30;88.70;;;2.75;64.56;96072.41;5106982;28;20364;-38
2021/12/10 01:49:46;;;;;;;7.70;3.63;;;2.30;89.00;;;2.77;64.37;96057.31;5106233;28;20367;-38
2021/12/10 01:52:18;;;;;;;6.93;2.07;;;2.30;88.70;;;2.74;64.22;96049.75;5105367;28;20242;-38
2021/12/10 01:54:51;;;;;;;8.50;1.90;;;2.30;88.80;;;2.76;64.39;96053.03;5105782;28;20058;-38
2021/12/10 01:57:24;;;;;;;4.53;2.00;;;2.40;88.50;;;2.78;64.45;96047.63;5106199;28;20219;-38
2021/12/10 01:59:53;;;;;;;3.57;1.80;;;2.30;88.20;;;2.77;64.88;96046.78;5105915;28;20376;-38
2021/12/10 02:02:28;;;;;;;7.17;2.23;;;2.30;88.40;;;2.73;64.47;96040.19;5105421;28;20048;-39
2021/12/10 02:04:57;;;;;;;6.33;2.23;;;2.30;88.30;;;2.70;64.37;96030.81;5105581;28;20069;-38
2021/12/10 02:07:27;;;;;;;3.57;1.60;;;2.20;88.50;;;2.67;64.35;96025.03;5106495;28;20062;-38
2021/12/10 02:09:55;;;;;;;7.93;1.60;;;2.20;88.70;;;2.64;64.71;96015.66;5105043;28;20047;-38
2021/12/10 02:12:24;;;;;;;6.87;2.13;;;2.10;88.90;;;2.64;64.45;96014.84;5108905;28;20057;-38
2021/12/10 02:15:00;;;;;;;7.77;1.70;;;2.10;89.00;;;2.62;64.52;96016.78;5110232;28;20044;-38
2021/12/10 02:17:38;;;;;;;6.83;1.53;;;2.10;88.90;;;2.61;64.52;96015.97;5109294;28;20055;-38
2021/12/10 02:20:27;;;;;;;6.80;1.90;;;2.10;88.90;;;2.57;64.67;95998.84;5092927;28;20289;-39
2021/12/10 02:22:55;;;;;;;3.40;1.70;;;2.10;88.90;;;2.55;64.56;96000.81;5109096;28;20051;-38
2021/12/10 02:25:27;;;;;;;4.47;1.63;;;2.00;89.10;;;2.51;64.69;95992.41;5109824;28;20266;-38
2021/12/10 02:27:58;;;;;;;3.27;1.40;;;2.00;89.30;;;2.50;64.56;95989.91;5110139;28;20100;-38
2021/12/10 02:30:29;;;;;;;3.13;1.70;;;2.00;89.60;;;2.51;64.55;95991.56;5109467;28;20058;-38
2021/12/10 02:32:58;;;;;;;5.03;2.07;;;2.00;89.60;;;2.47;64.49;95977.91;5109001;28;20054;-39
2021/12/10 02:35:27;;;;;;;4.77;1.87;;;1.90;89.30;;;2.43;64.60;95973.94;5109265;28;20066;-38
2021/12/10 02:37:56;;;;;;;3.67;1.60;;;1.90;89.70;;;2.44;64.98;95957.19;5109282;28;20047;-38
2021/12/10 02:40:27;;;;;;;3.17;1.77;;;1.90;89.60;;;2.41;64.62;95952.25;5109338;28;20055;-38
2021/12/10 02:42:58;;;;;;;4.03;2.17;;;1.90;89.30;;;2.44;64.55;95953.75;5110091;28;20043;-39
2021/12/10 02:45:30;;;;;;;6.27;2.43;;;2.00;88.90;;;2.41;64.69;95956.69;5110477;28;20055;-38
2021/12/10 02:47:59;;;;;;;5.87;1.80;;;2.00;88.80;;;2.42;64.14;95958.34;5109527;28;20060;-38
2021/12/10 02:50:30;;;;;;;5.87;1.87;;;2.00;88.60;;;2.41;64.42;95954.06;5110973;28;20047;-38
2021/12/10 02:52:59;;;;;;;4.97;1.67;;;1.90;88.90;;;2.39;64.39;95951.59;5108717;28;20047;-38
2021/12/10 02:55:30;;;;;;;3.00;1.70;;;1.90;88.60;;;2.38;64.59;95938.59;5108827;28;20039;-38
2021/12/10 02:58:05;;;;;;;3.47;1.60;;;1.90;88.30;;;2.35;64.47;95930.06;5109506;28;20046;-38
2021/12/10 03:00:43;;;;;;;3.17;1.70;;;1.90;88.90;;;2.36;64.82;95925.63;5109125;28;20058;-38
2021/12/10 03:03:45;;;;;;;6.40;1.90;;;1.90;88.40;;;2.34;64.46;95912.63;5108325;28;20113;-38
2021/12/10 03:06:17;;;;;;;5.27;2.07;;;1.90;88.20;;;2.36;64.70;95907.22;5106577;28;20121;-39
2021/12/10 03:08:49;;;;;;;5.30;1.80;;;1.90;88.10;;;2.35;64.45;95908.22;5108602;28;20048;-38
2021/12/10 03:11:30;;;;;;;2.97;1.50;;;1.90;88.20;;;2.34;64.42;95911.81;5109755;28;20048;-39
2021/12/10 03:14:05;;;;;;;3.87;1.67;;;1.90;88.10;;;2.33;64.68;95912.81;5109010;28;20467;-38
2021/12/10 03:16:34;;;;;;;5.10;1.87;;;1.90;88.60;;;2.32;64.56;95913.78;5091848;28;20048;-38
2021/12/10 03:19:03;;;;;;;9.47;1.80;;;1.90;88.40;;;2.30;64.43;95911.28;5107747;28;20047;-38
2021/12/10 03:21:33;;;;;;;5.60;2.30;;;1.90;88.30;;;2.31;64.83;95918.19;5090936;28;20066;-38
2021/12/10 03:24:01;;;;;;;5.27;1.83;;;1.90;88.60;;;2.29;64.71;95908.84;5107905;28;20054;-39
2021/12/10 03:26:31;;;;;;;6.47;1.80;;;1.80;88.40;;;2.25;64.27;95902.22;5108311;28;20047;-38
2021/12/10 03:28:59;;;;;;;5.73;2.37;;;1.70;88.50;;;2.23;64.61;95896.28;5109831;28;20164;-38
2021/12/10 03:31:27;;;;;;;4.70;1.50;;;1.70;88.60;;;2.23;64.65;95883.16;5109680;28;20059;-39
2021/12/10 03:33:57;;;;;;;8.37;2.10;;;1.70;88.80;;;2.20;64.39;95875.59;5108348;28;20043;-38
2021/12/10 03:36:26;;;;;;;3.37;1.77;;;1.70;88.80;;;2.21;64.62;95887.75;5108240;28;20066;-38
2021/12/10 03:38:55;;;;;;;6.10;2.37;;;1.80;88.70;;;2.22;64.59;95871.84;5108622;28;20039;-38
2021/12/10 03:41:24;;;;;;;7.23;1.93;;;1.80;88.70;;;2.24;64.91;95862.00;5109553;28;20046;-38
2021/12/10 03:43:53;;;;;;;3.67;1.73;;;1.80;88.40;;;2.23;64.55;95856.91;5108446;28;20058;-39
2021/12/10 03:46:23;;;;;;;3.13;1.93;;;1.70;88.70;;;2.19;64.33;95843.28;5109172;28;20055;-39
2021/12/10 03:48:52;;;;;;;4.60;2.10;;;1.70;88.50;;;2.17;64.40;95830.31;5107644;28;20055;-39
2021/12/10 03:51:24;;;;;;;5.17;1.93;;;1.70;88.70;;;2.19;64.71;95824.91;5107841;28;20063;-39
2021/12/10 03:53:52;;;;;;;5.57;1.80;;;1.80;88.60;;;2.21;64.40;95816.84;5108095;28;20051;-38
2021/12/10 03:56:25;;;;;;;3.43;1.50;;;1.80;88.30;;;2.21;64.21;95812.44;5107272;28;20054;-39
2021/12/10 03:58:56;;;;;;;3.00;1.47;;;1.90;87.80;;;2.20;64.64;95805.53;5108791;28;20039;-38
2021/12/10 04:01:31;;;;;;;3.23;2.00;;;1.90;87.60;;;2.19;64.47;95803.91;5106463;28;20059;-39
2021/12/10 04:04:02;;;;;;;5.97;1.57;;;1.90;86.90;;;2.18;63.96;95799.63;5107172;28;20049;-38
2021/12/10 04:06:30;;;;;;;4.07;1.50;;;1.90;86.80;;;2.12;64.48;95787.09;5107526;28;20050;-39
2021/12/10 04:09:00;;;;;;;4.40;2.30;;;1.90;86.20;;;2.16;64.58;95793.69;5108076;28;20368;-39
2021/12/10 04:11:28;;;;;;;4.27;1.70;;;1.80;86.10;;;2.17;64.33;95787.44;5107314;28;20069;-39
2021/12/10 04:13:57;;;;;;;4.80;2.07;;;1.80;86.10;;;2.14;63.77;95787.78;5106028;28;20062;-38
2021/12/10 04:16:29;;;;;;;3.83;1.70;;;1.80;86.10;;;2.15;63.95;95799.91;5089939;28;20039;-39
2021/12/10 04:19:00;;;;;;;4.60;1.93;;;1.80;85.60;;;2.15;63.85;95789.41;5106124;28;20338;-38
2021/12/10 04:21:29;;;;;;;3.17;1.97;;;1.80;85.50;;;2.14;63.77;95783.34;5107062;28;20040;-39
2021/12/10 04:23:57;;;;;;;3.00;1.67;;;1.80;85.30;;;2.15;64.02;95784.16;5107397;28;20055;-38
2021/12/10 04:26:27;;;;;;;4.97;1.90;;;1.80;85.00;;;2.15;63.81;95781.53;5108008;28;20249;-39
2021/12/10 04:28:55;;;;;;;3.27;1.57;;;1.80;85.20;;;2.14;63.99;95788.59;5105966;28;20055;-38
2021/12/10 04:31:23;;;;;;;4.83;1.93;;;1.70;84.80;;;2.12;63.60;95784.47;5107143;28;20051;-39
2021/12/10 04:33:51;;;;;;;3.00;1.50;;;1.70;85.10;;;2.03;62.91;95786.22;5107908;28;20046;-38
2021/12/10 04:36:19;;;;;;;3.93;1.90;;;1.80;84.60;;;2.04;63.71;95795.75;5106659;28;20058;-39
2021/12/10 04:38:47;;;;;;;4.17;1.80;;;1.70;84.70;;;2.03;63.43;95788.84;5105790;28;20055;-39
2021/12/10 04:41:15;;;;;;;3.00;1.60;;;1.60;84.40;;;2.01;63.66;95789.97;5106904;28;20061;-39
2021/12/10 04:43:45;;;;;;;3.33;2.00;;;1.60;84.80;;;2.04;63.90;95785.25;5106069;28;20346;-38
2021/12/10 04:46:15;;;;;;;7.00;2.83;;;1.60;84.90;;;2.05;63.80;95778.19;5107743;28;20044;-38
2021/12/10 04:49:00;;;;;;;4.07;1.93;;;1.70;84.50;;;2.07;63.22;95763.13;5106718;28;20050;-38
2021/12/10 04:51:43;;;;;;;3.00;1.87;;;1.70;84.00;;;2.02;63.29;95750.47;5107281;28;20051;-38
2021/12/10 04:54:12;;;;;;;3.43;1.80;;;1.70;84.00;;;1.99;63.46;95742.88;5105667;28;20227;-38
2021/12/10 04:56:44;;;;;;;4.37;2.03;;;1.80;84.20;;;2.04;63.74;95750.31;5105657;28;20129;-39
2021/12/10 04:59:16;;;;;;;4.30;2.37;;;1.70;84.00;;;2.04;63.61;95753.75;5089517;28;20066;-39
2021/12/10 05:01:45;;;;;;;4.50;2.23;;;1.60;84.00;;;2.01;63.52;95745.34;5107042;28;20058;-39
2021/12/10 05:04:18;;;;;;;3.60;2.33;;;1.60;84.10;;;2.01;63.34;95737.50;5106066;28;20055;-38
2021/12/10 05:06:48;;;;;;;4.87;2.80;;;1.60;84.30;;;1.99;63.64;95726.31;5088781;28;20065;-38
2021/12/10 05:09:17;;;;;;;11.17;2.80;;;1.60;84.60;;;2.02;63.34;95726.84;5106934;28;20160;-39
2021/12/10 05:11:46;;;;;;;8.30;2.67;;;1.60;84.40;;;2.03;63.49;95728.47;5106293;28;20109;-39
2021/12/10 05:14:15;;;;;;;6.37;2.40;;;1.60;84.40;;;1.99;63.67;95716.63;5106520;28;20706;-39
2021/12/10 05:16:46;;;;;;;4.90;2.47;;;1.70;84.40;;;2.00;63.42;95720.06;5106196;28;20338;-38
2021/12/10 05:19:21;;;;;;;6.13;2.73;;;1.70;84.30;;;2.02;63.38;95705.84;5105007;28;20253;-38
2021/12/10 05:21:49;;;;;;;4.47;2.87;;;1.70;84.40;;;2.04;63.35;95693.38;5106634;28;20059;-38
2021/12/10 05:24:19;;;;;;;4.00;2.50;;;1.70;84.00;;;2.06;63.59;95694.03;5105648;28;20366;-38
2021/12/10 05:26:47;;;;;;;7.00;3.40;;;1.60;84.00;;;2.06;63.23;95698.47;5106871;28;20063;-38
2021/12/10 05:29:15;;;;;;;6.67;3.43;;;1.70;83.70;;;2.01;63.10;95692.88;5105958;28;20360;-38
2021/12/10 05:31:45;;;;;;;5.10;3.07;;;1.60;83.90;;;1.99;63.18;95700.06;5089200;28;20059;-38
2021/12/10 05:34:15;;;;;;;4.00;3.60;;;1.60;83.90;;;1.95;63.57;95703.00;5088353;28;20338;-38
2021/12/10 05:36:44;;;;;;;5.10;3.97;;;1.50;84.40;;;1.95;63.56;95699.56;5104800;28;20057;-39
2021/12/10 05:39:17;;;;;;;7.67;3.60;;;1.50;84.40;;;1.91;63.39;95696.41;5105847;28;20051;-39
2021/12/10 05:41:45;;;;;;;6.07;3.77;;;1.50;84.80;;;1.90;63.41;95693.94;5106306;28;20237;-39
2021/12/10 05:44:13;;;;;;;4.57;2.90;;;1.40;84.70;;;1.89;63.55;95692.31;5105995;28;20051;-39
2021/12/10 05:46:41;;;;;;;7.97;3.17;;;1.50;84.60;;;1.86;63.28;95688.19;5109346;28;20338;-39
2021/12/10 05:49:09;;;;;;;6.37;3.30;;;1.40;84.60;;;1.83;63.32;95688.50;5110822;28;20054;-39
2021/12/10 05:51:39;;;;;;;7.00;3.70;;;1.30;84.90;;;1.82;63.77;95686.03;5111464;28;20364;-39
2021/12/10 05:54:07;;;;;;;6.80;3.37;;;1.40;85.00;;;1.80;63.77;95682.72;5110294;28;20049;-39
2021/12/10 05:56:35;;;;;;;6.20;3.00;;;1.40;85.10;;;1.82;63.69;95670.28;5110095;28;20046;-39
2021/12/10 05:59:05;;;;;;;5.87;2.70;;;1.50;85.20;;;1.83;63.49;95657.00;5110986;28;20054;-39
2021/12/10 06:01:35;;;;;;;8.10;3.00;;;1.50;84.80;;;1.84;63.42;95661.28;5110346;28;20044;-39
2021/12/10 06:04:04;;;;;;;7.23;3.13;;;1.50;85.10;;;1.86;63.79;95640.13;5109750;28;20044;-39
2021/12/10 06:06:33;;;;;;;6.33;2.80;;;1.50;86.00;;;1.83;63.38;95628.16;5109317;28;20048;-38
2021/12/10 06:09:08;;;;;;;6.13;2.80;;;1.50;84.90;;;1.83;63.44;95630.78;5109662;28;20062;-39
2021/12/10 06:11:37;;;;;;;4.17;2.60;;;1.50;85.10;;;1.81;63.80;95624.03;5109738;28;20044;-39
2021/12/10 06:14:07;;;;;;;4.50;2.47;;;1.40;85.10;;;1.77;63.23;95632.22;5109679;28;20059;-39
2021/12/10 06:16:36;;;;;;;6.00;3.60;;;1.40;85.30;;;1.77;64.06;95624.34;5109169;28;20289;-39
2021/12/10 06:19:05;;;;;;;5.63;3.53;;;1.40;85.30;;;1.68;63.88;95619.22;5109916;28;20039;-39
2021/12/10 06:21:36;;;;;;;8.93;3.53;;;1.40;85.30;;;1.71;63.91;95622.34;5109194;28;20054;-39
2021/12/10 06:24:05;;;;;;;8.73;4.03;;;1.40;85.30;;;1.74;63.80;95615.97;5110174;28;20049;-39
2021/12/10 06:26:33;;;;;;;8.03;3.27;;;1.40;85.30;;;1.74;63.73;95619.41;5108646;28;20055;-39
2021/12/10 06:29:03;;;;;;;6.83;3.67;;;1.50;85.40;;;1.69;64.18;95613.81;5109381;28;20044;-39
2021/12/10 06:31:32;;;;;;;7.13;2.90;;;1.50;85.10;;;1.74;63.77;95614.16;5092365;28;20045;-39
2021/12/10 06:34:00;;;;;;;12.20;6.80;;;1.50;85.00;;;1.76;64.00;95603.50;5109429;28;20289;-39
2021/12/10 06:36:30;;;;;;;11.43;4.83;;;1.50;84.80;;;1.76;63.73;95590.38;5108270;28;20051;-39
2021/12/10 06:39:00;;;;;;;5.17;3.53;;;1.40;85.30;;;1.74;63.82;95584.47;5109403;28;20065;-39
2021/12/10 06:41:27;;;;;;;4.60;3.60;;;1.40;85.70;;;1.72;63.58;95562.81;5108901;28;20343;-39
2021/12/10 06:43:55;;;;;;;8.87;4.23;;;1.30;85.80;;;1.72;64.18;95552.34;5109155;28;20039;-39
2021/12/10 06:46:23;;;;;;;5.60;3.33;;;1.40;85.80;;;1.72;64.39;95550.53;5090956;28;20047;-40
2021/12/10 06:48:52;;;;;;;6.37;3.50;;;1.40;85.80;;;1.73;64.04;95554.00;5109140;28;20338;-39
2021/12/10 06:51:21;;;;;;;22.53;10.27;;;1.40;85.80;;;1.73;64.10;95551.38;5109361;28;20056;-39
2021/12/10 06:53:50;;;;;;;10.27;4.50;;;1.40;86.00;;;1.74;64.17;95543.31;5109449;28;20237;-39
2021/12/10 06:56:20;;;;;;;7.23;3.80;;;1.50;86.00;;;1.76;64.16;95540.53;5108397;28;20052;-39
2021/12/10 06:58:48;;;;;;;5.23;3.50;;;1.50;85.60;;;1.77;64.06;95536.94;5109702;28;20614;-39
2021/12/10 07:01:24;;;;;;;6.57;4.20;;;1.50;85.70;;;1.76;64.00;95530.88;5111137;28;20246;-39
2021/12/10 07:03:56;;;;;;;9.83;4.20;;;1.40;85.70;;;1.71;64.19;95527.09;5108984;28;20056;-40
2021/12/10 07:06:27;;;;;;;8.53;4.70;;;1.30;86.10;;;1.68;64.35;95519.53;5109214;28;20047;-39
2021/12/10 07:08:57;;;;;;;8.13;4.23;;;1.30;86.70;;;1.67;64.40;95526.59;5090964;28;20052;-40
2021/12/10 07:11:26;;;;;;;9.73;4.70;;;1.30;86.80;;;1.66;64.61;95524.13;5109806;28;20055;-40
2021/12/10 07:13:57;;;;;;;6.57;3.80;;;1.30;86.90;;;1.64;64.28;95526.06;5103357;28;20062;-40
2021/12/10 07:16:27;;;;;;;7.63;4.20;;;1.30;86.90;;;1.64;64.53;95511.16;5114490;28;20043;-40
2021/12/10 07:19:00;;;;;;;11.03;4.57;;;1.40;86.70;;;1.67;64.29;95521.34;5116853;28;20036;-40
2021/12/10 07:21:32;;;;;;;8.23;5.13;;;1.40;86.70;;;1.66;64.24;95517.06;5111305;28;20047;-39
2021/12/10 07:24:06;;;;;;;10.00;4.90;;;1.30;86.60;;;1.68;64.35;95506.41;5101026;28;20048;-40
2021/12/10 07:26:34;;;;;;;;;;;1.30;86.70;;;1.63;64.02;95501.66;5121258;28;20045;-40
2021/12/10 07:29:04;;;;;;;7.60;4.90;;;1.30;86.70;;;1.64;64.01;95498.03;5117627;28;20125;-40
2021/12/10 07:31:34;;;;;;;7.50;5.13;;;1.30;86.80;;;1.68;64.03;95498.53;5119256;28;20349;-40
2021/12/10 07:34:03;;;;;;;7.23;4.87;;;1.30;87.00;;;1.70;64.39;95501.81;5106284;28;20051;-40
2021/12/10 07:36:31;;;;;;;9.93;4.60;;;1.30;87.00;;;1.70;64.27;95499.19;5118610;28;20055;-40
2021/12/10 07:38:59;;;;;;;8.93;4.33;;;1.30;86.60;;;1.71;64.59;95495.63;5119472;28;20036;-40
2021/12/10 07:41:27;;;;;;;7.67;4.10;;;1.30;86.90;;;1.74;64.06;95496.09;5119412;28;20058;-40
2021/12/10 07:43:55;;;;;;;7.43;4.83;;;1.40;86.80;;;1.77;64.32;95487.09;5117692;28;20031;-40
2021/12/10 07:46:27;;;;;;;9.20;4.43;;;1.50;86.30;;;1.75;64.46;95476.75;5119731;28;20054;-40
2021/12/10 07:48:56;;;;;;;6.43;4.40;;;1.50;86.30;;;1.75;64.17;95470.69;5120321;28;20050;-40
2021/12/10 07:51:28;;;;;;;8.70;4.70;;;1.50;86.40;;;1.77;64.58;95472.19;5118942;28;20047;-40
2021/12/10 07:53:59;;;;;;;9.47;4.53;;;1.50;86.10;;;1.79;64.31;95477.28;5120591;28;20186;-41
2021/12/10 07:56:30;;;;;;;8.70;4.77;;;1.50;86.10;;;1.80;64.11;95483.31;5100256;28;20231;-40
2021/12/10 07:58:59;;;;;;;8.23;5.03;;;1.50;85.90;;;1.82;64.57;95476.94;5099986;28;20247;-40
2021/12/10 08:01:30;;;;;;;7.17;4.33;;;1.50;85.80;;;1.78;63.67;95480.84;5118648;28;20055;-40
2021/12/10 08:04:01;;;;;;;6.80;4.40;;;1.50;85.70;;;1.82;64.55;95471.69;5118368;28;20051;-40
2021/12/10 08:06:31;;;;;;;8.40;4.40;;;1.60;85.40;;;1.88;63.97;95476.31;5118334;28;20399;-40
2021/12/10 08:09:00;;;;;;;10.13;4.40;;;1.60;85.10;;;1.87;63.75;95479.09;5109658;28;20342;-40
2021/12/10 08:11:28;;;;;;;8.90;3.70;;;1.60;85.00;;;1.88;64.28;95478.09;5099374;28;20057;-40
2021/12/10 08:13:57;;;;;;;7.70;4.73;;;1.60;85.20;;;1.89;64.04;95471.88;5117804;28;20047;-40
2021/12/10 08:16:25;;;;;;;8.80;4.47;;;1.50;85.10;;;1.87;63.94;95476.47;5117389;28;20054;-40
2021/12/10 08:18:54;;;;;;;8.97;4.20;;;1.50;85.60;;;1.86;64.01;95474.81;5110063;28;20050;-41
2021/12/10 08:21:22;;;;;;;8.77;4.93;;;1.50;85.40;;;1.85;64.04;95479.25;5103118;28;20044;-40
2021/12/10 08:23:53;;;;;;;7.97;4.73;;;1.40;85.40;;;1.80;64.12;95473.66;5099150;28;20054;-40
2021/12/10 08:26:22;;;;;;;9.47;5.10;;;1.40;86.10;;;1.77;63.94;95473.97;5118457;28;20051;-40
2021/12/10 08:28:50;;;;;;;9.77;4.70;;;1.30;86.40;;;1.74;64.31;95477.72;5099694;28;20219;-40
2021/12/10 08:31:18;;;;;;;7.17;5.03;;;1.30;86.70;;;1.75;63.93;95471.50;5117026;28;20338;-40
2021/12/10 08:33:49;;;;;;;8.57;4.43;;;1.30;86.90;;;1.76;64.12;95472.31;5118028;28;20342;-40
2021/12/10 08:36:21;;;;;;;9.40;4.97;;;1.30;86.50;;;1.80;64.14;95470.22;5119223;28;20039;-40
2021/12/10 08:38:50;;;;;;;7.77;4.43;;;1.40;87.10;;;1.84;64.20;95474.16;5118544;28;20052;-40
2021/12/10 08:41:25;;;;;;;9.67;4.50;;;1.50;86.20;;;1.85;64.31;95467.94;5117929;28;20346;-40
2021/12/10 08:43:56;;;;;;;;;;;1.50;86.10;;;1.86;64.09;95469.56;5119699;28;20253;-40
2021/12/10 08:46:27;;;;;;;9.53;3.83;;;1.50;85.60;;;1.94;64.30;95473.03;5118735;28;19934;-40
2021/12/10 08:48:58;;;;;;;7.67;4.17;;;1.70;86.10;;;2.00;64.72;95468.97;5117665;28;20086;-40
2021/12/10 08:51:37;;;;;;;6.30;3.90;;;1.70;85.70;;;2.02;64.07;95472.25;5098700;28;20054;-41
2021/12/10 08:54:07;;;;;;;9.53;4.33;;;1.80;85.10;;;2.08;64.33;95468.97;5116644;28;20240;-41
2021/12/10 08:56:35;;;;;;;10.47;4.07;;;1.90;84.40;;;2.11;64.09;95468.66;5115886;28;20055;-40
2021/12/10 08:59:06;;;;;;;5.97;3.93;;;1.90;84.10;;;2.18;63.78;95466.19;5111993;28;20044;-41
2021/12/10 09:01:41;;;;;;;7.23;3.40;;;2.00;82.90;;;2.20;63.77;95461.59;5100748;28;20053;-41
2021/12/10 09:04:12;;;;;;;11.13;4.60;;;2.00;82.00;;;2.22;63.66;95459.63;5104776;28;20054;-41
2021/12/10 09:06:45;;;;;;;10.10;4.37;;;1.90;81.50;;;2.23;63.41;95447.31;5107632;28;20052;-40
2021/12/10 09:09:14;;;;;;;8.35;3.83;;;2.00;81.30;;;2.26;63.26;95445.19;5091098;28;20051;-41
2021/12/10 09:11:49;;;;;;;7.20;3.67;;;2.00;81.40;;;2.30;63.44;95443.06;5101349;28;20066;-40
2021/12/10 09:14:29;;;;;;;5.37;3.60;;;2.00;81.70;;;2.33;63.28;95438.31;5104921;28;20058;-40
2021/12/10 09:17:01;;;;;;;6.07;3.43;;;2.00;81.60;;;2.33;63.18;95430.44;5106938;28;20234;-40
2021/12/10 09:19:32;;;;;;;7.97;4.30;;;2.00;81.50;;;2.37;63.14;95428.28;5107096;28;20334;-40
2021/12/10 09:22:04;;;;;;;3.93;2.97;;;2.10;81.40;;;2.41;63.41;95436.66;5103431;28;20062;-40
2021/12/10 09:24:36;;;;;;;6.20;3.47;;;2.20;80.80;;;2.44;62.95;95431.06;5092822;28;20052;-41
2021/12/10 09:27:07;;;;;;;8.67;3.20;;;2.20;79.80;;;2.47;62.61;95433.38;5112881;28;20305;-41
2021/12/10 09:29:41;;;;;;;9.87;4.30;;;2.20;79.40;;;2.48;62.73;95427.97;5120149;28;20060;-41
2021/12/10 09:32:15;;;;;;;6.00;3.50;;;2.20;79.70;;;2.52;62.61;95431.06;5094967;28;20052;-41
2021/12/10 09:34:44;;;;;;;9.48;3.58;;;2.20;79.70;;;2.54;62.68;95418.63;5120870;28;20048;-41
2021/12/10 09:37:14;;;;;;;6.47;3.17;;;2.30;79.20;;;2.58;62.61;95414.66;5121646;28;20031;-41
2021/12/10 09:39:48;;;;;;;6.67;3.70;;;2.40;80.10;;;2.64;62.88;95414.00;5120855;28;20047;-41
2021/12/10 09:42:22;;;;;;;6.38;3.08;;;2.50;78.80;;;2.68;62.84;95411.84;5120336;28;20043;-41
2021/12/10 09:44:54;;;;;;;6.33;2.90;;;2.50;79.30;;;2.70;62.43;95400.19;5102808;28;20062;-41
2021/12/10 09:47:24;;;;;;;7.55;2.97;;;2.50;78.80;;;2.73;62.30;95399.84;5100531;28;20059;-40
2021/12/10 09:49:57;;;;;;;6.77;2.83;;;2.50;79.20;;;2.71;62.36;95401.81;5120763;28;20046;-40
2021/12/10 09:52:31;;;;;;;4.53;2.73;;;2.50;78.20;;;2.72;61.33;95384.25;5080382;28;20052;-41
2021/12/10 09:55:03;;;;;;;4.80;2.57;;;2.50;78.30;;;2.73;61.73;95388.50;5113976;28;20055;-41
2021/12/10 09:57:36;;;;;;;5.78;2.80;;;2.60;78.30;;;2.79;62.26;95379.94;5120306;28;20048;-40
2021/12/10 10:00:33;;;;;;;4.30;2.47;;;2.60;78.20;;;2.84;62.00;95380.28;5104498;28;20356;-40
2021/12/10 10:03:06;;;;;;;5.03;2.60;;;2.70;77.20;;;2.88;61.62;95373.69;5121092;28;20429;-40
2021/12/10 10:05:37;;;;;;;6.07;2.37;;;2.70;77.50;;;2.93;62.17;95371.38;5121031;28;20054;-41
2021/12/10 10:08:12;;;;;;;7.03;2.40;;;2.70;77.60;;;2.98;62.12;95364.78;5110727;28;20266;-40
2021/12/10 10:10:44;;;;;;;5.27;2.13;;;2.70;77.90;;;2.99;60.41;95364.63;5112813;28;20291;-41
2021/12/10 10:13:16;;;;;;;3.67;2.10;;;2.80;77.00;;;3.03;60.97;95352.78;5121656;28;21160;-41
2021/12/10 10:15:48;;;;;;;5.93;2.67;;;2.90;76.80;;;3.03;61.10;95346.72;5121336;28;20058;-41
2021/12/10 10:18:20;;;;;;;4.17;2.13;;;3.00;76.10;;;3.02;60.78;95338.00;5118272;28;20036;-40
2021/12/10 10:20:56;;;;;;;6.33;3.07;;;3.00;74.90;;;3.07;60.80;95333.03;5119548;28;20062;-40
2021/12/10 10:23:27;;;;;;;3.87;2.50;;;3.00;75.10;;;3.06;60.59;95322.69;5104997;28;20380;-40
2021/12/10 10:26:03;;;;;;;7.10;2.67;;;3.00;74.00;;;3.09;59.17;95325.81;5121729;28;20039;-41
2021/12/10 10:28:35;;;;;;;3.50;2.33;;;3.00;73.40;;;3.14;60.64;95325.28;5122282;28;20273;-40
2021/12/10 10:31:11;;;;;;;4.73;3.20;;;3.00;74.00;;;3.21;60.74;95318.34;5120449;28;20063;-40
2021/12/10 10:33:45;;;;;;;4.10;2.03;;;3.10;74.80;;;3.09;59.09;95311.84;5121080;28;20059;-40
2021/12/10 10:36:19;;;;;;;5.83;2.23;;;3.10;72.40;;;3.20;60.27;95308.84;5121166;28;20051;-41
2021/12/10 10:39:09;;;;;;;4.03;1.88;;;3.10;73.70;;;3.23;59.82;95305.03;5122021;28;20058;-40
2021/12/10 10:41:54;;;;;;;3.87;2.23;;;3.10;72.00;;;3.29;59.30;95292.00;5120947;28;20044;-40
2021/12/10 10:44:24;;;;;;;4.03;2.03;;;3.20;72.30;;;3.33;59.49;95295.94;5111780;28;20039;-40
2021/12/10 10:46:59;;;;;;;4.70;1.97;;;3.20;69.90;;;3.35;58.64;95295.75;5110176;28;20050;-40
2021/12/10 10:49:44;;;;;;;3.63;1.97;;;3.20;71.70;;;3.40;58.37;95290.00;5121287;28;20269;-40
2021/12/10 10:52:28;;;;;;;3.60;1.65;;;3.30;69.20;;;3.47;59.19;95296.16;5121084;28;20059;-40
2021/12/10 10:55:20;;;;;;;3.60;1.70;;;3.30;70.10;;;3.46;57.91;95291.91;5121558;28;20050;-40
2021/12/10 10:58:04;;;;;;;2.37;1.40;;;3.40;66.60;;;3.52;58.85;95291.22;5075052;28;20062;-40
2021/12/10 11:00:50;;;;;;;;;;;3.40;69.30;;;3.56;58.52;95287.25;5120069;28;20043;-40
2021/12/10 11:03:58;;;;;;;2.03;1.30;;;3.40;65.20;;;3.63;58.36;95276.84;5106037;28;19916;-40